CJD3 weather

Birch Hills Airport
Birch Hills, Saskatchewan, Canada

Public forecast

Using degrees Celsius for public forecast. Weather courtesy of forecast.io.

Closest aviation weather report (METAR) to Birch Hills Airport

Closest report is Prince Albert Glass Field, 15.7 nm (29.1 km) NNW. Retrieved 2020/06/02 02:00 UTC (41 minutes ago):

CYPA 020200Z 30009KT 15SM FEW090 BKN250 21/04 A2972 RMK AC2CI5 SLP069 DENSITY ALT 2700FT

Closest aviation forecast (TAF) to Birch Hills Airport

Closest forecast is Prince Albert Glass Field, 15.7 nm (29.1 km) NNW. Retrieved 2020-06-02 01:00 UTC (2 hours ago):

TAF CYPA 020038Z 0201/0204 30012G22KT P6SM FEW060 BKN240 BECMG 0202/0204 28010KT RMK NXT FCST WILL BE ISSUED AT 021345Z